Time;durP1;ratioP1;P1;durP2;ratioP2;P2;SDS_P1;SDS_P2;PMS_P1;PMS_P2;Temp;Humidity;BMP_temperature;BMP_pressure;BME280_temperature;BME280_humidity;BME280_pressure;Samples;Min_cycle;Max_cycle;Signal;HPM_P1;HPM_P2
2022/10/06 00:02:16;;;;;;;8.80;2.40;;;;;;;;;;4934100;29;20474;-68
2022/10/06 00:04:43;;;;;;;13.88;2.88;;;;;;;;;;4935404;29;20055;-65
2022/10/06 00:07:10;;;;;;;11.57;3.08;;;;;;;;;;4935712;29;20042;-65
2022/10/06 00:09:37;;;;;;;11.82;2.67;;;;;;;;;;4934925;29;20398;-66
2022/10/06 00:12:09;;;;;;;6.65;2.65;;;;;;;;;;4932100;29;20032;-64
2022/10/06 00:14:39;;;;;;;12.27;2.40;;;;;;;;;;4926395;29;20652;-60
2022/10/06 00:17:06;;;;;;;20.17;2.88;;;;;;;;;;4930781;29;20035;-63
2022/10/06 00:19:33;;;;;;;15.65;2.83;;;;;;;;;;4934696;29;20030;-64
2022/10/06 00:22:00;;;;;;;18.60;3.15;;;;;;;;;;4934260;29;20049;-64
2022/10/06 00:24:27;;;;;;;14.80;2.88;;;;;;;;;;4935537;29;20028;-64
2022/10/06 00:26:54;;;;;;;15.77;2.83;;;;;;;;;;4934964;29;20024;-64
2022/10/06 00:29:21;;;;;;;16.70;2.88;;;;;;;;;;4934821;29;20569;-65
2022/10/06 00:31:48;;;;;;;13.48;3.13;;;;;;;;;;4934596;29;20060;-64
2022/10/06 00:34:15;;;;;;;15.35;3.80;;;;;;;;;;4933810;29;20594;-64
2022/10/06 00:36:42;;;;;;;19.52;4.05;;;;;;;;;;4932825;29;20028;-64
2022/10/06 00:39:09;;;;;;;13.75;3.90;;;;;;;;;;4934293;29;20035;-64
2022/10/06 00:41:36;;;;;;;13.70;3.63;;;;;;;;;;4934700;29;20035;-66
2022/10/06 00:44:03;;;;;;;12.38;3.47;;;;;;;;;;4934927;29;20114;-63
2022/10/06 00:46:30;;;;;;;10.82;3.88;;;;;;;;;;4932262;29;20047;-63
2022/10/06 00:49:09;;;;;;;16.13;3.95;;;;;;;;;;4919742;29;20031;-64
2022/10/06 00:51:38;;;;;;;17.98;4.57;;;;;;;;;;4915521;29;20035;-63
2022/10/06 00:54:06;;;;;;;19.45;4.47;;;;;;;;;;4923092;29;20035;-63
2022/10/06 00:56:34;;;;;;;12.68;3.90;;;;;;;;;;4926076;29;20087;-63
2022/10/06 00:59:01;;;;;;;20.98;4.55;;;;;;;;;;4917789;29;20419;-63
2022/10/06 01:01:31;;;;;;;20.13;4.55;;;;;;;;;;4915503;29;20039;-64
2022/10/06 01:04:00;;;;;;;15.82;4.60;;;;;;;;;;4929600;29;20402;-64
2022/10/06 01:06:27;;;;;;;13.30;4.15;;;;;;;;;;4935158;29;20442;-63
2022/10/06 01:08:55;;;;;;;11.10;4.05;;;;;;;;;;4921594;29;20372;-63
2022/10/06 01:11:22;;;;;;;15.70;4.07;;;;;;;;;;4934385;29;20020;-63
2022/10/06 01:13:49;;;;;;;10.77;4.18;;;;;;;;;;4915951;29;20036;-63
2022/10/06 01:16:25;;;;;;;13.43;4.25;;;;;;;;;;4923036;29;20505;-63
2022/10/06 01:18:54;;;;;;;18.48;4.22;;;;;;;;;;4934728;29;20075;-63
2022/10/06 01:21:31;;;;;;;16.10;4.22;;;;;;;;;;4933446;29;20043;-64
2022/10/06 01:23:58;;;;;;;15.65;4.68;;;;;;;;;;4932058;29;20071;-63
2022/10/06 01:26:27;;;;;;;23.42;4.80;;;;;;;;;;4934355;29;20035;-63
2022/10/06 01:28:54;;;;;;;24.83;4.88;;;;;;;;;;4934211;29;20494;-64
2022/10/06 01:31:21;;;;;;;17.38;4.95;;;;;;;;;;4934318;29;20036;-63
2022/10/06 01:33:51;;;;;;;17.63;4.13;;;;;;;;;;4934978;29;20171;-63
2022/10/06 01:36:18;;;;;;;16.60;4.47;;;;;;;;;;4934149;29;20067;-63
2022/10/06 01:38:46;;;;;;;19.85;4.65;;;;;;;;;;4934594;29;20031;-63
2022/10/06 01:41:13;;;;;;;20.83;4.70;;;;;;;;;;4933772;29;20518;-62
2022/10/06 01:43:40;;;;;;;25.70;5.22;;;;;;;;;;4934218;29;20163;-62
2022/10/06 01:46:07;;;;;;;15.73;5.05;;;;;;;;;;4934251;29;20091;-63
2022/10/06 01:48:35;;;;;;;18.75;4.90;;;;;;;;;;4934143;29;20042;-63
2022/10/06 01:51:02;;;;;;;21.27;4.32;;;;;;;;;;4933992;29;20044;-63
2022/10/06 01:53:29;;;;;;;14.10;4.10;;;;;;;;;;4934064;29;20127;-64
2022/10/06 01:56:00;;;;;;;14.73;4.40;;;;;;;;;;4934186;29;20023;-62
2022/10/06 01:58:27;;;;;;;14.73;4.25;;;;;;;;;;4934015;29;20027;-63
2022/10/06 02:00:54;;;;;;;14.57;4.03;;;;;;;;;;4935905;29;20078;-63
2022/10/06 02:03:21;;;;;;;12.73;4.03;;;;;;;;;;4938101;29;20055;-63
2022/10/06 02:05:48;;;;;;;15.00;4.47;;;;;;;;;;4937897;29;20468;-62
2022/10/06 02:08:15;;;;;;;13.32;3.92;;;;;;;;;;4938068;29;20034;-62
2022/10/06 02:10:42;;;;;;;18.50;4.47;;;;;;;;;;4937895;29;20031;-62
2022/10/06 02:13:09;;;;;;;13.77;4.22;;;;;;;;;;4938059;29;20039;-62
2022/10/06 02:15:36;;;;;;;18.02;4.38;;;;;;;;;;4937935;29;20032;-62
2022/10/06 02:18:03;;;;;;;12.57;4.05;;;;;;;;;;4937752;29;20438;-62
2022/10/06 02:20:30;;;;;;;12.15;3.80;;;;;;;;;;4937647;29;20074;-64
2022/10/06 02:22:57;;;;;;;15.30;3.80;;;;;;;;;;4924808;29;20027;-63
2022/10/06 02:25:26;;;;;;;7.80;3.42;;;;;;;;;;4937777;29;20102;-63
2022/10/06 02:27:54;;;;;;;8.50;4.10;;;;;;;;;;4937590;29;20038;-63
2022/10/06 02:30:21;;;;;;;12.90;3.95;;;;;;;;;;4937793;29;20062;-64
2022/10/06 02:32:48;;;;;;;9.30;3.30;;;;;;;;;;4935592;29;20054;-66
2022/10/06 02:35:15;;;;;;;13.32;3.92;;;;;;;;;;4937757;29;20078;-64
2022/10/06 02:37:42;;;;;;;10.40;3.30;;;;;;;;;;4936595;29;20537;-64
2022/10/06 02:40:09;;;;;;;12.55;3.78;;;;;;;;;;4936326;29;20040;-62
2022/10/06 02:42:37;;;;;;;17.73;3.83;;;;;;;;;;4935573;29;20542;-62
2022/10/06 02:45:05;;;;;;;10.90;3.78;;;;;;;;;;4936298;29;20039;-62
2022/10/06 02:47:33;;;;;;;10.68;3.72;;;;;;;;;;4935974;29;20060;-62
2022/10/06 02:50:00;;;;;;;12.23;3.53;;;;;;;;;;4936169;29;20028;-61
2022/10/06 02:52:33;;;;;;;12.65;3.30;;;;;;;;;;4936712;29;20379;-62
2022/10/06 02:55:00;;;;;;;14.00;3.90;;;;;;;;;;4937000;29;20417;-62
2022/10/06 02:57:27;;;;;;;11.77;3.75;;;;;;;;;;4937388;29;20028;-61
2022/10/06 02:59:54;;;;;;;11.75;3.63;;;;;;;;;;4936992;29;20031;-62
2022/10/06 03:02:21;;;;;;;8.65;3.22;;;;;;;;;;4937394;29;20032;-61
2022/10/06 03:04:48;;;;;;;13.07;3.92;;;;;;;;;;4937360;29;20151;-61
2022/10/06 03:07:16;;;;;;;10.02;3.80;;;;;;;;;;4937265;29;20032;-61
2022/10/06 03:09:43;;;;;;;10.60;3.45;;;;;;;;;;4937093;29;20394;-61
2022/10/06 03:12:09;;;;;;;9.48;3.25;;;;;;;;;;4936670;29;20028;-61
2022/10/06 03:14:36;;;;;;;10.55;3.83;;;;;;;;;;4937154;29;20036;-61
2022/10/06 03:17:03;;;;;;;9.80;3.60;;;;;;;;;;4937110;29;20027;-61
2022/10/06 03:19:30;;;;;;;10.10;3.45;;;;;;;;;;4936870;29;20031;-61
2022/10/06 03:21:57;;;;;;;9.02;3.45;;;;;;;;;;4937067;29;20554;-61
2022/10/06 03:24:24;;;;;;;9.73;3.33;;;;;;;;;;4936924;29;20035;-62
2022/10/06 03:26:51;;;;;;;7.18;3.25;;;;;;;;;;4936919;29;20032;-61
2022/10/06 03:29:18;;;;;;;10.43;3.00;;;;;;;;;;4936741;29;20023;-61
2022/10/06 03:31:45;;;;;;;6.43;2.70;;;;;;;;;;4936700;29;20102;-61
2022/10/06 03:34:14;;;;;;;8.15;3.30;;;;;;;;;;4936796;29;20486;-61
2022/10/06 03:36:42;;;;;;;8.05;3.30;;;;;;;;;;4936728;29;20106;-61
2022/10/06 03:39:09;;;;;;;7.80;2.90;;;;;;;;;;4936565;29;20032;-61
2022/10/06 03:41:37;;;;;;;9.13;3.58;;;;;;;;;;4936549;29;20035;-61
2022/10/06 03:44:05;;;;;;;9.05;2.90;;;;;;;;;;4936590;29;20059;-61
2022/10/06 03:46:33;;;;;;;8.07;2.95;;;;;;;;;;4936581;29;20110;-62
2022/10/06 03:49:00;;;;;;;7.53;2.72;;;;;;;;;;4936488;29;20028;-61
2022/10/06 03:51:31;;;;;;;7.65;2.65;;;;;;;;;;4936464;29;20501;-61
2022/10/06 03:53:58;;;;;;;9.55;2.97;;;;;;;;;;4936447;29;20027;-61
2022/10/06 03:56:35;;;;;;;7.20;2.58;;;;;;;;;;4936432;29;20497;-61
2022/10/06 03:59:03;;;;;;;5.63;2.47;;;;;;;;;;4936246;29;20032;-61
2022/10/06 04:01:32;;;;;;;6.45;2.83;;;;;;;;;;4936138;29;20444;-61
2022/10/06 04:03:59;;;;;;;6.72;2.65;;;;;;;;;;4936293;29;20083;-61
2022/10/06 04:06:27;;;;;;;6.70;2.53;;;;;;;;;;4936194;29;20027;-62
2022/10/06 04:08:54;;;;;;;7.82;2.58;;;;;;;;;;4936223;29;20071;-62
2022/10/06 04:11:28;;;;;;;8.35;3.00;;;;;;;;;;4935969;29;20087;-62
2022/10/06 04:14:00;;;;;;;9.70;3.33;;;;;;;;;;4936010;29;20040;-62
2022/10/06 04:16:28;;;;;;;5.78;2.50;;;;;;;;;;4936102;29;20035;-61
2022/10/06 04:18:56;;;;;;;4.93;2.22;;;;;;;;;;4936042;29;20079;-61
2022/10/06 04:21:24;;;;;;;5.78;2.55;;;;;;;;;;4935822;29;20056;-62
2022/10/06 04:23:54;;;;;;;5.43;2.60;;;;;;;;;;4935166;29;20032;-62
2022/10/06 04:26:23;;;;;;;8.30;2.88;;;;;;;;;;4935852;29;20031;-62
2022/10/06 04:28:50;;;;;;;9.45;2.65;;;;;;;;;;4935833;29;20486;-62
2022/10/06 04:31:18;;;;;;;5.43;2.30;;;;;;;;;;4935495;29;20028;-62
2022/10/06 04:33:46;;;;;;;6.78;2.38;;;;;;;;;;4935782;29;20035;-62
2022/10/06 04:36:16;;;;;;;5.95;2.25;;;;;;;;;;4935724;29;20024;-62
2022/10/06 04:38:42;;;;;;;6.57;2.58;;;;;;;;;;4935732;29;20030;-62
2022/10/06 04:41:14;;;;;;;6.55;2.28;;;;;;;;;;4935515;29;20494;-62
2022/10/06 04:43:41;;;;;;;8.70;2.55;;;;;;;;;;4935665;29;20028;-62
2022/10/06 04:46:10;;;;;;;4.40;1.85;;;;;;;;;;4935698;29;20076;-62
2022/10/06 04:48:37;;;;;;;3.85;2.22;;;;;;;;;;4935858;29;20036;-62
2022/10/06 04:51:05;;;;;;;7.32;2.60;;;;;;;;;;4935502;29;20035;-62
2022/10/06 04:53:32;;;;;;;4.90;2.28;;;;;;;;;;4935518;29;20500;-62
2022/10/06 04:55:59;;;;;;;3.67;1.90;;;;;;;;;;4935591;29;20035;-62
2022/10/06 04:58:27;;;;;;;5.00;2.53;;;;;;;;;;4935563;29;20036;-62
2022/10/06 05:00:54;;;;;;;5.18;2.40;;;;;;;;;;4935309;29;20024;-62
2022/10/06 05:03:21;;;;;;;5.53;2.22;;;;;;;;;;4934249;29;20036;-62
2022/10/06 05:05:48;;;;;;;5.10;2.33;;;;;;;;;;4935528;29;20071;-62
2022/10/06 05:08:15;;;;;;;5.28;2.20;;;;;;;;;;4935439;29;20102;-62
2022/10/06 05:10:42;;;;;;;6.30;2.33;;;;;;;;;;4935341;29;20435;-62
2022/10/06 05:13:11;;;;;;;7.10;2.17;;;;;;;;;;4935357;29;20389;-62
2022/10/06 05:15:38;;;;;;;6.53;2.20;;;;;;;;;;4935307;29;20035;-62
2022/10/06 05:18:05;;;;;;;5.57;2.20;;;;;;;;;;4935352;29;20035;-62
2022/10/06 05:20:32;;;;;;;5.28;2.50;;;;;;;;;;4935235;29;20059;-62
2022/10/06 05:22:59;;;;;;;3.70;2.00;;;;;;;;;;4935322;29;20387;-62
2022/10/06 05:25:26;;;;;;;4.13;2.10;;;;;;;;;;4935242;29;20035;-62
2022/10/06 05:27:53;;;;;;;4.70;2.13;;;;;;;;;;4935221;29;20504;-62
2022/10/06 05:30:20;;;;;;;4.35;2.20;;;;;;;;;;4935174;29;20028;-62
2022/10/06 05:32:49;;;;;;;6.57;2.22;;;;;;;;;;4935041;29;20147;-62
2022/10/06 05:35:16;;;;;;;6.70;2.45;;;;;;;;;;4936181;29;20070;-62
2022/10/06 05:37:43;;;;;;;4.40;1.85;;;;;;;;;;4938839;29;20099;-62
2022/10/06 05:40:10;;;;;;;3.45;1.83;;;;;;;;;;4938723;29;20031;-62
2022/10/06 05:42:37;;;;;;;3.78;2.30;;;;;;;;;;4938882;29;20031;-62
2022/10/06 05:45:04;;;;;;;4.15;2.00;;;;;;;;;;4938827;29;20379;-62
2022/10/06 05:47:31;;;;;;;5.82;2.20;;;;;;;;;;4938796;29;20051;-62
2022/10/06 05:49:58;;;;;;;3.60;2.05;;;;;;;;;;4938578;29;20083;-62
2022/10/06 05:52:25;;;;;;;3.67;2.00;;;;;;;;;;4938618;29;20111;-62
2022/10/06 05:54:53;;;;;;;5.38;1.80;;;;;;;;;;4938677;29;20031;-62
2022/10/06 05:57:20;;;;;;;3.45;2.22;;;;;;;;;;4938586;29;20040;-62
2022/10/06 05:59:47;;;;;;;3.42;1.92;;;;;;;;;;4938400;29;20565;-62
2022/10/06 06:02:14;;;;;;;4.53;1.90;;;;;;;;;;4948391;29;20117;-62
2022/10/06 06:04:41;;;;;;;4.55;1.90;;;;;;;;;;4957540;28;20089;-62
2022/10/06 06:07:09;;;;;;;3.58;1.65;;;;;;;;;;4957527;28;20035;-62
2022/10/06 06:09:36;;;;;;;2.72;1.60;;;;;;;;;;4957452;28;20044;-62
2022/10/06 06:12:03;;;;;;;2.95;1.83;;;;;;;;;;4957387;28;20042;-62
2022/10/06 06:17:15;;;;;;;2.63;1.58;;;;;;;;;;4957375;29;20062;-62
2022/10/06 06:19:42;;;;;;;4.47;1.92;;;;;;;;;;4957093;28;20043;-62
2022/10/06 06:22:09;;;;;;;4.55;1.70;;;;;;;;;;4957353;28;20027;-62
2022/10/06 06:24:36;;;;;;;4.35;2.10;;;;;;;;;;4957282;28;20398;-62
2022/10/06 06:27:03;;;;;;;4.13;1.52;;;;;;;;;;4957181;28;20082;-62
2022/10/06 06:29:30;;;;;;;2.35;1.60;;;;;;;;;;4957160;28;20494;-62
2022/10/06 06:31:57;;;;;;;4.72;1.77;;;;;;;;;;4956831;28;20094;-62
2022/10/06 06:34:24;;;;;;;3.53;1.70;;;;;;;;;;4957108;28;20039;-62
2022/10/06 06:36:53;;;;;;;4.82;1.80;;;;;;;;;;4956952;28;20039;-62
2022/10/06 06:39:21;;;;;;;3.00;1.75;;;;;;;;;;4956839;28;20046;-62
2022/10/06 06:41:47;;;;;;;3.33;1.77;;;;;;;;;;4956876;28;20114;-62
2022/10/06 06:44:15;;;;;;;4.07;1.40;;;;;;;;;;4956937;28;20074;-62
2022/10/06 06:46:43;;;;;;;2.15;1.45;;;;;;;;;;4955993;28;20038;-62
2022/10/06 06:49:11;;;;;;;2.95;1.48;;;;;;;;;;4956592;28;20070;-62
2022/10/06 06:51:39;;;;;;;4.68;1.73;;;;;;;;;;4956737;28;20035;-62
2022/10/06 06:54:06;;;;;;;1.95;1.52;;;;;;;;;;4956824;28;20019;-62
2022/10/06 06:56:35;;;;;;;2.30;1.23;;;;;;;;;;4956745;28;20386;-62
2022/10/06 06:59:09;;;;;;;4.88;1.80;;;;;;;;;;4956617;28;20046;-62
2022/10/06 07:01:36;;;;;;;3.42;1.45;;;;;;;;;;4956392;28;20103;-62
2022/10/06 07:04:04;;;;;;;2.65;1.52;;;;;;;;;;4956569;28;20058;-62
2022/10/06 07:06:32;;;;;;;3.25;1.40;;;;;;;;;;4956509;28;20042;-61
2022/10/06 07:09:00;;;;;;;2.60;1.42;;;;;;;;;;4967245;28;20488;-62
2022/10/06 07:11:31;;;;;;;2.47;1.52;;;;;;;;;;4975740;28;20035;-62
2022/10/06 07:14:00;;;;;;;3.90;1.40;;;;;;;;;;4975716;28;20019;-62
2022/10/06 07:27:32;;;;;;;2.88;1.55;;;;;;;;;;4975400;28;20045;-62
2022/10/06 07:29:59;;;;;;;2.65;1.50;;;;;;;;;;4975282;28;20042;-62
2022/10/06 07:32:28;;;;;;;3.22;1.67;;;;;;;;;;4975169;28;20075;-62
2022/10/06 07:34:55;;;;;;;2.53;1.23;;;;;;;;;;4975569;28;20035;-62
2022/10/06 07:37:22;;;;;;;1.75;1.23;;;;;;;;;;4975237;28;20409;-62
2022/10/06 07:39:49;;;;;;;3.67;1.35;;;;;;;;;;4974970;28;20030;-62
2022/10/06 07:42:17;;;;;;;2.58;1.45;;;;;;;;;;4975160;28;20023;-61
2022/10/06 07:47:31;;;;;;;2.75;1.27;;;;;;;;;;4975312;28;20050;-62
2022/10/06 07:49:58;;;;;;;3.05;1.30;;;;;;;;;;4974963;28;20062;-62
2022/10/06 07:52:27;;;;;;;2.63;1.25;;;;;;;;;;4975002;28;20030;-62
2022/10/06 07:54:55;;;;;;;5.82;1.55;;;;;;;;;;4974865;28;20031;-62
2022/10/06 07:57:22;;;;;;;4.07;1.67;;;;;;;;;;4974873;28;20023;-62
2022/10/06 07:59:49;;;;;;;3.05;1.40;;;;;;;;;;4974574;28;20089;-62
2022/10/06 08:02:17;;;;;;;3.25;1.50;;;;;;;;;;4974775;28;20035;-62
2022/10/06 08:04:44;;;;;;;2.25;1.42;;;;;;;;;;4974738;28;20065;-62
2022/10/06 08:07:11;;;;;;;2.42;1.33;;;;;;;;;;4974728;28;20026;-62
2022/10/06 08:09:38;;;;;;;2.45;1.45;;;;;;;;;;4974578;28;20485;-62
2022/10/06 08:12:31;;;;;;;2.95;1.40;;;;;;;;;;4974572;28;20037;-61
2022/10/06 08:14:52;;;;;;;3.67;1.50;;;;;;;;;;4974471;28;20035;-61
2022/10/06 08:17:19;;;;;;;3.00;1.30;;;;;;;;;;4973218;28;20624;-61
2022/10/06 08:19:46;;;;;;;2.10;1.35;;;;;;;;;;4974304;28;20033;-61
2022/10/06 08:22:14;;;;;;;3.47;1.60;;;;;;;;;;4974465;28;20191;-61
2022/10/06 08:24:42;;;;;;;4.97;1.58;;;;;;;;;;4974258;28;20043;-61
2022/10/06 08:27:09;;;;;;;5.72;1.60;;;;;;;;;;4974354;28;20061;-60
2022/10/06 08:29:36;;;;;;;4.25;1.60;;;;;;;;;;4974129;28;20105;-61
2022/10/06 08:32:03;;;;;;;3.08;1.52;;;;;;;;;;4974004;28;20465;-60
2022/10/06 08:34:30;;;;;;;5.68;1.60;;;;;;;;;;4974172;28;20027;-60
2022/10/06 08:36:57;;;;;;;6.13;1.60;;;;;;;;;;4974226;28;20030;-61
2022/10/06 08:39:24;;;;;;;2.67;1.30;;;;;;;;;;4974147;28;20038;-61
2022/10/06 08:41:53;;;;;;;8.45;1.50;;;;;;;;;;4974027;28;20027;-61
2022/10/06 08:44:53;;;;;;;5.75;1.95;;;;;;;;;;4974150;28;20027;-60
2022/10/06 08:47:21;;;;;;;4.97;1.30;;;;;;;;;;4952443;28;20126;-61
2022/10/06 08:49:50;;;;;;;6.28;1.67;;;;;;;;;;4974016;28;20481;-61
2022/10/06 08:52:35;;;;;;;5.43;1.38;;;;;;;;;;4974042;28;20027;-60
2022/10/06 08:55:20;;;;;;;3.50;1.70;;;;;;;;;;4974064;28;20037;-61
2022/10/06 08:58:05;;;;;;;3.78;1.42;;;;;;;;;;4974041;28;20073;-61
2022/10/06 09:00:32;;;;;;;4.32;1.33;;;;;;;;;;4973760;28;20037;-61
2022/10/06 09:03:01;;;;;;;2.72;1.20;;;;;;;;;;4973970;28;20497;-61
2022/10/06 09:05:30;;;;;;;2.53;1.20;;;;;;;;;;4973992;28;20105;-60
2022/10/06 09:08:10;;;;;;;2.28;1.40;;;;;;;;;;4973871;28;20485;-61
2022/10/06 09:10:55;;;;;;;3.78;1.30;;;;;;;;;;4975307;28;20441;-61
2022/10/06 09:13:30;;;;;;;4.20;1.25;;;;;;;;;;4977916;28;20031;-61
2022/10/06 09:16:06;;;;;;;2.67;1.33;;;;;;;;;;4977844;28;20023;-61
2022/10/06 09:18:36;;;;;;;3.00;1.58;;;;;;;;;;4977658;28;20035;-61
2022/10/06 09:21:04;;;;;;;3.25;1.40;;;;;;;;;;4977235;28;20038;-61
2022/10/06 09:23:48;;;;;;;2.78;1.33;;;;;;;;;;4959903;28;20035;-61
2022/10/06 09:26:17;;;;;;;3.08;1.40;;;;;;;;;;4958275;28;20039;-61
2022/10/06 09:28:46;;;;;;;6.60;1.67;;;;;;;;;;4958065;28;20088;-61
2022/10/06 09:31:25;;;;;;;2.70;1.58;;;;;;;;;;4958240;28;20029;-61
2022/10/06 09:33:54;;;;;;;2.40;1.40;;;;;;;;;;4958087;28;20163;-60
2022/10/06 09:36:22;;;;;;;2.30;1.30;;;;;;;;;;4958155;28;20027;-60
2022/10/06 09:38:52;;;;;;;2.78;1.30;;;;;;;;;;4957977;28;20533;-61
2022/10/06 09:41:24;;;;;;;4.88;1.50;;;;;;;;;;4958158;28;20437;-61
2022/10/06 09:43:54;;;;;;;2.85;1.48;;;;;;;;;;4958081;28;20530;-61
2022/10/06 09:46:27;;;;;;;3.03;1.30;;;;;;;;;;4957872;28;20454;-60
2022/10/06 09:49:06;;;;;;;2.95;1.45;;;;;;;;;;4957806;28;20027;-61
2022/10/06 09:51:35;;;;;;;2.35;1.48;;;;;;;;;;4957742;28;20106;-61
2022/10/06 09:54:09;;;;;;;2.42;1.40;;;;;;;;;;4957762;28;20125;-62
2022/10/06 09:56:40;;;;;;;1.75;1.00;;;;;;;;;;4957690;28;20039;-63
2022/10/06 09:59:16;;;;;;;2.80;1.50;;;;;;;;;;4957703;28;20035;-63
2022/10/06 10:01:50;;;;;;;3.10;1.17;;;;;;;;;;4957555;28;20557;-63
2022/10/06 10:04:21;;;;;;;2.72;1.20;;;;;;;;;;4957639;28;20035;-63
2022/10/06 10:06:48;;;;;;;3.00;1.38;;;;;;;;;;4957578;28;20078;-63
2022/10/06 10:09:19;;;;;;;3.20;1.40;;;;;;;;;;4957501;28;20030;-63
2022/10/06 10:14:38;;;;;;;2.58;1.30;;;;;;;;;;4957734;29;20600;-63
2022/10/06 10:17:12;;;;;;;3.70;1.27;;;;;;;;;;4957404;28;20533;-63
2022/10/06 10:19:42;;;;;;;1.55;1.20;;;;;;;;;;4957263;28;20039;-63
2022/10/06 10:22:23;;;;;;;2.00;1.00;;;;;;;;;;4955907;28;20073;-63
2022/10/06 10:24:58;;;;;;;1.75;1.10;;;;;;;;;;4957278;28;20031;-63
2022/10/06 10:27:35;;;;;;;2.35;1.27;;;;;;;;;;4957179;28;20466;-63
2022/10/06 10:30:08;;;;;;;2.05;1.10;;;;;;;;;;4956992;28;20059;-63
2022/10/06 10:32:40;;;;;;;2.80;1.20;;;;;;;;;;4956918;28;20130;-63
2022/10/06 10:35:15;;;;;;;3.40;1.40;;;;;;;;;;4957093;29;20033;-63
2022/10/06 10:37:42;;;;;;;2.83;1.45;;;;;;;;;;4957051;28;20033;-63
2022/10/06 10:40:17;;;;;;;1.48;1.05;;;;;;;;;;4956842;28;20117;-63
2022/10/06 10:42:49;;;;;;;4.47;1.63;;;;;;;;;;4956950;28;20023;-63
2022/10/06 10:45:24;;;;;;;2.92;1.30;;;;;;;;;;4956879;28;20047;-63
2022/10/06 10:47:51;;;;;;;3.08;1.30;;;;;;;;;;4956861;28;20083;-63
2022/10/06 10:50:24;;;;;;;1.80;1.05;;;;;;;;;;4956758;28;20114;-63
2022/10/06 10:52:53;;;;;;;2.50;1.38;;;;;;;;;;4956718;28;20023;-63
2022/10/06 10:55:55;;;;;;;2.92;1.30;;;;;;;;;;4956706;28;20034;-63
2022/10/06 10:58:26;;;;;;;3.37;1.37;;;;;;;;;;4935180;29;20035;-64
2022/10/06 11:00:56;;;;;;;3.00;1.38;;;;;;;;;;4952946;28;20043;-63
2022/10/06 11:03:23;;;;;;;1.55;1.17;;;;;;;;;;4956478;28;20035;-63
2022/10/06 11:06:16;;;;;;;1.83;1.13;;;;;;;;;;4956471;28;20090;-63
2022/10/06 11:08:42;;;;;;;;;;;;;;;;;;4955780;29;20104;-63
2022/10/06 11:11:33;;;;;;;1.63;1.10;;;;;;;;;;4956482;28;20404;-63
2022/10/06 11:14:02;;;;;;;2.05;1.10;;;;;;;;;;4946394;28;20097;-63
2022/10/06 11:16:50;;;;;;;1.92;1.23;;;;;;;;;;4956359;28;20533;-63
2022/10/06 11:19:34;;;;;;;2.50;1.05;;;;;;;;;;4956161;28;20039;-63
2022/10/06 11:22:03;;;;;;;3.40;1.20;;;;;;;;;;4956120;28;20074;-63
2022/10/06 11:24:30;;;;;;;1.52;1.30;;;;;;;;;;4956170;28;20039;-63
2022/10/06 11:27:16;;;;;;;6.38;1.30;;;;;;;;;;4956195;28;20031;-62
2022/10/06 11:29:55;;;;;;;4.32;1.30;;;;;;;;;;4955949;28;20039;-63
2022/10/06 11:32:29;;;;;;;3.67;1.20;;;;;;;;;;4951544;28;20043;-62
2022/10/06 11:34:56;;;;;;;2.95;1.33;;;;;;;;;;4955102;28;20027;-63
2022/10/06 11:37:46;;;;;;;3.22;1.60;;;;;;;;;;4955200;28;20126;-63
2022/10/06 11:40:32;;;;;;;8.52;1.55;;;;;;;;;;4955411;28;20046;-63
2022/10/06 11:43:06;;;;;;;3.03;1.40;;;;;;;;;;4953648;29;20027;-63
2022/10/06 11:45:48;;;;;;;3.33;1.20;;;;;;;;;;4955135;28;20105;-63
2022/10/06 11:48:21;;;;;;;7.03;1.63;;;;;;;;;;4952885;29;20129;-65
2022/10/06 11:50:54;;;;;;;5.10;1.65;;;;;;;;;;4955852;28;20618;-64
2022/10/06 11:53:39;;;;;;;3.13;1.48;;;;;;;;;;4955523;28;20035;-64
2022/10/06 11:56:17;;;;;;;1.95;1.50;;;;;;;;;;4955571;28;20034;-64
2022/10/06 11:58:56;;;;;;;3.60;1.45;;;;;;;;;;4955362;28;20038;-64
2022/10/06 12:01:33;;;;;;;5.85;1.83;;;;;;;;;;4954817;28;20477;-63
2022/10/06 12:04:04;;;;;;;2.90;1.60;;;;;;;;;;4953129;29;20051;-64
2022/10/06 12:06:46;;;;;;;2.25;1.17;;;;;;;;;;4955449;28;20555;-63
2022/10/06 12:09:33;;;;;;;3.03;1.55;;;;;;;;;;4954638;28;20030;-63
2022/10/06 12:12:02;;;;;;;4.63;1.50;;;;;;;;;;4955071;28;20035;-62
2022/10/06 12:14:29;;;;;;;2.63;1.23;;;;;;;;;;4954933;28;20443;-64
2022/10/06 12:16:59;;;;;;;2.60;1.63;;;;;;;;;;4954949;28;20047;-63
2022/10/06 12:19:47;;;;;;;3.20;1.40;;;;;;;;;;4952159;29;20023;-64
2022/10/06 12:22:21;;;;;;;4.13;1.30;;;;;;;;;;4939550;28;20047;-63
2022/10/06 12:25:04;;;;;;;3.00;1.60;;;;;;;;;;4954331;28;20043;-63
2022/10/06 12:27:44;;;;;;;3.20;1.20;;;;;;;;;;4952971;29;20031;-63
2022/10/06 12:30:22;;;;;;;3.95;1.50;;;;;;;;;;4954471;28;20100;-64
2022/10/06 12:32:51;;;;;;;4.80;1.65;;;;;;;;;;4954782;28;20113;-63
2022/10/06 12:35:27;;;;;;;4.53;1.50;;;;;;;;;;4954941;28;20101;-62
2022/10/06 12:37:57;;;;;;;2.83;1.65;;;;;;;;;;4944440;28;20050;-62
2022/10/06 12:40:48;;;;;;;2.75;1.48;;;;;;;;;;4954399;28;20047;-62
2022/10/06 12:43:17;;;;;;;3.53;1.27;;;;;;;;;;4954516;28;20114;-62
2022/10/06 12:45:53;;;;;;;2.20;1.35;;;;;;;;;;4953958;28;20058;-62
2022/10/06 12:48:26;;;;;;;4.57;1.52;;;;;;;;;;4954549;28;20039;-62
2022/10/06 12:50:57;;;;;;;3.30;1.55;;;;;;;;;;4954721;28;20035;-62
2022/10/06 12:53:26;;;;;;;3.53;1.38;;;;;;;;;;4954708;28;20051;-63
2022/10/06 12:55:58;;;;;;;5.10;1.42;;;;;;;;;;4954716;28;20038;-62
2022/10/06 12:58:33;;;;;;;4.00;1.38;;;;;;;;;;4954588;28;20122;-62
2022/10/06 13:01:04;;;;;;;3.17;1.33;;;;;;;;;;4954606;28;20039;-62
2022/10/06 13:03:31;;;;;;;3.67;1.30;;;;;;;;;;4954689;28;20038;-62
2022/10/06 13:06:02;;;;;;;3.30;1.40;;;;;;;;;;4954679;28;20555;-62
2022/10/06 13:08:32;;;;;;;2.80;1.63;;;;;;;;;;4954418;28;20042;-62
2022/10/06 13:11:18;;;;;;;2.72;1.40;;;;;;;;;;4954592;28;20379;-62
2022/10/06 13:13:48;;;;;;;3.60;1.23;;;;;;;;;;4954500;28;20042;-62
2022/10/06 13:16:16;;;;;;;2.15;1.25;;;;;;;;;;4954541;28;20478;-62
2022/10/06 13:18:42;;;;;;;2.20;1.20;;;;;;;;;;4954408;28;20043;-62
2022/10/06 13:21:15;;;;;;;1.88;1.30;;;;;;;;;;4954317;28;20046;-62
2022/10/06 13:23:42;;;;;;;3.15;1.52;;;;;;;;;;4954506;28;20035;-62
2022/10/06 13:26:21;;;;;;;2.10;1.23;;;;;;;;;;4954342;28;20039;-62
2022/10/06 13:28:50;;;;;;;3.97;1.40;;;;;;;;;;4954317;28;20078;-62
2022/10/06 13:31:21;;;;;;;5.32;1.27;;;;;;;;;;4954143;28;20123;-63
2022/10/06 13:33:57;;;;;;;2.83;1.40;;;;;;;;;;4954442;28;20031;-62
2022/10/06 13:36:25;;;;;;;5.78;1.30;;;;;;;;;;4953865;28;20314;-63
2022/10/06 13:38:52;;;;;;;2.50;1.38;;;;;;;;;;4951256;29;20477;-63
2022/10/06 13:41:33;;;;;;;2.22;1.20;;;;;;;;;;4953738;28;20039;-62
2022/10/06 13:44:02;;;;;;;2.55;1.42;;;;;;;;;;4951063;29;20047;-62
2022/10/06 13:46:30;;;;;;;4.38;1.30;;;;;;;;;;4953274;28;20042;-62
2022/10/06 13:49:03;;;;;;;2.00;1.10;;;;;;;;;;4952749;28;20027;-62
2022/10/06 13:51:31;;;;;;;1.45;1.17;;;;;;;;;;4952808;28;20042;-62
2022/10/06 13:53:59;;;;;;;6.00;1.02;;;;;;;;;;4952582;28;20393;-63
2022/10/06 13:56:29;;;;;;;2.92;1.35;;;;;;;;;;4953886;28;20065;-63
2022/10/06 13:58:56;;;;;;;2.53;1.00;;;;;;;;;;4956293;28;20031;-63
2022/10/06 14:01:32;;;;;;;2.15;1.00;;;;;;;;;;4956391;28;20035;-63
2022/10/06 14:04:17;;;;;;;3.50;1.60;;;;;;;;;;4957215;28;20034;-62
2022/10/06 14:07:01;;;;;;;4.15;1.40;;;;;;;;;;4956866;29;20039;-63
2022/10/06 14:09:31;;;;;;;5.40;1.13;;;;;;;;;;4954841;29;20106;-62
2022/10/06 14:12:06;;;;;;;5.63;1.25;;;;;;;;;;4957008;28;20513;-62
2022/10/06 14:14:33;;;;;;;3.50;1.30;;;;;;;;;;4955448;29;20163;-62
2022/10/06 14:17:01;;;;;;;4.75;1.58;;;;;;;;;;4956870;28;20036;-63
2022/10/06 14:19:40;;;;;;;4.80;1.10;;;;;;;;;;4956778;28;20468;-62
2022/10/06 14:22:27;;;;;;;3.38;1.00;;;;;;;;;;4956894;28;20038;-63
2022/10/06 14:24:54;;;;;;;6.68;1.27;;;;;;;;;;4955371;29;20027;-62
2022/10/06 14:27:21;;;;;;;13.00;1.20;;;;;;;;;;4956655;28;20529;-63
2022/10/06 14:29:48;;;;;;;8.77;1.20;;;;;;;;;;4956680;28;20481;-63
2022/10/06 14:32:16;;;;;;;5.85;1.30;;;;;;;;;;4956438;28;20035;-63
2022/10/06 14:34:43;;;;;;;4.88;1.20;;;;;;;;;;4956564;28;20062;-63
2022/10/06 14:37:17;;;;;;;3.83;1.00;;;;;;;;;;4956521;28;20035;-63
2022/10/06 14:39:44;;;;;;;4.50;0.90;;;;;;;;;;4956327;28;20034;-62
2022/10/06 14:42:14;;;;;;;2.53;0.88;;;;;;;;;;4956424;28;20035;-63
2022/10/06 14:44:42;;;;;;;5.78;1.10;;;;;;;;;;4956251;28;20039;-63
2022/10/06 14:47:09;;;;;;;4.38;1.05;;;;;;;;;;4956382;28;20039;-63
2022/10/06 14:49:36;;;;;;;7.07;0.90;;;;;;;;;;4956305;28;20050;-62
2022/10/06 14:52:04;;;;;;;3.00;1.13;;;;;;;;;;4956189;28;20494;-63
2022/10/06 14:54:33;;;;;;;2.10;0.82;;;;;;;;;;4956209;28;20023;-63
2022/10/06 14:57:00;;;;;;;1.50;0.60;;;;;;;;;;4956050;28;20038;-63
2022/10/06 14:59:27;;;;;;;3.60;0.80;;;;;;;;;;4956026;29;20086;-62
2022/10/06 15:01:54;;;;;;;1.83;0.75;;;;;;;;;;4956054;28;20524;-63
2022/10/06 15:04:26;;;;;;;3.78;0.70;;;;;;;;;;4955962;28;20031;-63
2022/10/06 15:09:38;;;;;;;5.97;0.80;;;;;;;;;;4955786;29;19965;-62
2022/10/06 15:12:05;;;;;;;3.03;0.70;;;;;;;;;;4956537;28;20038;-62
2022/10/06 15:14:33;;;;;;;3.67;0.73;;;;;;;;;;4954812;29;20438;-62
2022/10/06 15:17:01;;;;;;;2.92;0.68;;;;;;;;;;4955746;28;20089;-63
2022/10/06 15:19:28;;;;;;;1.27;0.60;;;;;;;;;;4956110;28;20110;-62
2022/10/06 15:21:55;;;;;;;5.32;0.98;;;;;;;;;;4955799;28;20502;-62